createdAt,value
2023-04-08T00:00:51.643Z,97.09
2023-04-08T00:01:51.707Z,97.09
2023-04-08T00:02:51.688Z,97.20
2023-04-08T00:03:51.743Z,97.20
2023-04-08T00:04:51.699Z,97.20
2023-04-08T00:05:51.622Z,97.09
2023-04-08T00:06:51.577Z,97.09
2023-04-08T00:07:51.596Z,96.99
2023-04-08T00:08:51.728Z,96.99
2023-04-08T00:09:51.571Z,96.99
2023-04-08T00:10:51.534Z,97.09
2023-04-08T00:11:51.534Z,97.09
2023-04-08T00:12:51.527Z,97.09
2023-04-08T00:13:51.510Z,96.99
2023-04-08T00:14:51.557Z,96.99
2023-04-08T00:15:51.490Z,96.99
2023-04-08T00:16:51.546Z,97.09
2023-04-08T00:17:51.504Z,96.99
2023-04-08T00:18:51.810Z,96.89
2023-04-08T00:19:51.471Z,96.99
2023-04-08T00:20:51.428Z,96.99
2023-04-08T00:21:51.427Z,97.09
2023-04-08T00:22:51.418Z,97.09
2023-04-08T00:23:51.407Z,97.20
2023-04-08T00:24:51.434Z,97.30
2023-04-08T00:25:51.386Z,97.30
2023-04-08T00:26:51.369Z,97.30
2023-04-08T00:27:51.392Z,97.30
2023-04-08T00:28:51.680Z,97.30
2023-04-08T00:29:51.357Z,97.30
2023-04-08T00:30:51.357Z,97.30
2023-04-08T00:31:51.341Z,97.30
2023-04-08T00:32:51.352Z,97.30
2023-04-08T00:33:51.298Z,97.30
2023-04-08T00:34:51.321Z,97.20
2023-04-08T00:35:51.317Z,97.09
2023-04-08T00:36:51.273Z,97.09
2023-04-08T00:37:51.279Z,97.20
2023-04-08T00:38:51.361Z,97.09
2023-04-08T00:39:51.249Z,97.09
2023-04-08T00:40:51.226Z,96.99
2023-04-08T00:41:51.226Z,97.09
2023-04-08T00:42:51.202Z,97.20
2023-04-08T00:43:51.196Z,97.30
2023-04-08T00:44:51.204Z,97.30
2023-04-08T00:45:51.203Z,97.30
2023-04-08T00:46:51.161Z,97.41
2023-04-08T00:47:51.186Z,97.41
2023-04-08T00:48:51.382Z,97.51
2023-04-08T00:49:51.126Z,97.51
2023-04-08T00:50:51.124Z,97.41
2023-04-08T00:51:51.100Z,97.20
2023-04-08T00:52:51.099Z,97.09
2023-04-08T00:53:51.109Z,97.09
2023-04-08T00:54:51.080Z,97.09
2023-04-08T00:55:51.062Z,97.09
2023-04-08T00:56:51.067Z,97.09
2023-04-08T00:57:51.060Z,97.09
2023-04-08T00:58:51.420Z,97.09
2023-04-08T00:59:51.074Z,97.20
2023-04-08T01:00:51.028Z,97.30
2023-04-08T01:01:51.221Z,97.41
2023-04-08T01:02:51.084Z,97.30
2023-04-08T01:03:51.104Z,97.25
2023-04-08T01:04:50.971Z,97.25
2023-04-08T01:05:50.968Z,97.30
2023-04-08T01:06:50.979Z,97.30
2023-04-08T01:07:50.961Z,97.30
2023-04-08T01:08:51.216Z,97.20
2023-04-08T01:09:50.945Z,97.34
2023-04-08T01:10:50.918Z,97.41
2023-04-08T01:11:50.903Z,97.66
2023-04-08T01:12:50.885Z,97.66
2023-04-08T01:13:50.899Z,97.72
2023-04-08T01:14:50.891Z,97.82
2023-04-08T01:15:50.932Z,97.72
2023-04-08T01:16:50.914Z,97.61
2023-04-08T01:17:50.970Z,97.51
2023-04-08T01:18:51.134Z,97.61
2023-04-08T01:19:50.822Z,97.61
2023-04-08T01:20:50.806Z,97.72
2023-04-08T01:21:50.826Z,97.72
2023-04-08T01:22:50.789Z,97.61
2023-04-08T01:23:50.785Z,97.61
2023-04-08T01:24:50.779Z,97.41
2023-04-08T01:25:50.763Z,97.30
2023-04-08T01:26:50.745Z,97.20
2023-04-08T01:27:50.720Z,97.09
2023-04-08T01:28:50.873Z,97.09
2023-04-08T01:29:50.742Z,97.20
2023-04-08T01:30:50.722Z,97.20
2023-04-08T01:31:50.704Z,97.20
2023-04-08T01:32:50.731Z,97.30
2023-04-08T01:33:50.657Z,97.30
2023-04-08T01:34:50.645Z,97.20
2023-04-08T01:35:50.725Z,97.30
2023-04-08T01:36:50.681Z,97.30
2023-04-08T01:37:50.620Z,97.20
2023-04-08T01:38:50.943Z,97.09
2023-04-08T01:39:50.601Z,97.20
2023-04-08T01:40:50.599Z,97.30
2023-04-08T01:41:50.613Z,97.41
2023-04-08T01:42:50.610Z,97.61
2023-04-08T01:43:50.628Z,97.61
2023-04-08T01:44:50.540Z,97.61
2023-04-08T01:45:50.578Z,97.66
2023-04-08T01:46:50.559Z,97.61
2023-04-08T01:47:50.589Z,97.72
2023-04-08T01:48:50.697Z,97.61
2023-04-08T01:49:50.534Z,97.51
2023-04-08T01:50:50.504Z,97.41
2023-04-08T01:51:50.482Z,97.30
2023-04-08T01:52:50.483Z,97.20
2023-04-08T01:53:50.472Z,97.09
2023-04-08T01:54:50.484Z,97.09
2023-04-08T01:55:50.440Z,97.09
2023-04-08T01:56:50.435Z,97.09
2023-04-08T01:57:50.419Z,97.20
2023-04-08T01:58:50.688Z,97.09
2023-04-08T01:59:50.410Z,97.09
2023-04-08T02:00:50.395Z,97.09
2023-04-08T02:01:50.444Z,97.09
2023-04-08T02:02:50.564Z,97.30
2023-04-08T02:03:50.426Z,97.30
2023-04-08T02:04:50.478Z,97.30
2023-04-08T02:05:50.344Z,97.34
2023-04-08T02:06:50.333Z,97.45
2023-04-08T02:07:50.307Z,97.41
2023-04-08T02:08:50.511Z,97.51
2023-04-08T02:09:50.285Z,97.41
2023-04-08T02:10:50.282Z,97.30
2023-04-08T02:11:50.299Z,97.20
2023-04-08T02:12:50.278Z,97.09
2023-04-08T02:13:50.305Z,97.09
2023-04-08T02:14:50.236Z,97.09
2023-04-08T02:15:50.255Z,97.09
2023-04-08T02:16:50.217Z,96.99
2023-04-08T02:17:50.262Z,96.99
2023-04-08T02:18:50.562Z,96.99
2023-04-08T02:19:50.186Z,97.09
2023-04-08T02:20:50.181Z,96.99
2023-04-08T02:21:50.176Z,96.99
2023-04-08T02:22:50.156Z,96.99
2023-04-08T02:23:50.145Z,96.99
2023-04-08T02:24:50.168Z,97.09
2023-04-08T02:25:50.124Z,97.09
2023-04-08T02:26:50.176Z,96.99
2023-04-08T02:27:50.108Z,96.89
2023-04-08T02:28:50.450Z,96.99
2023-04-08T02:29:50.116Z,96.99
2023-04-08T02:30:50.110Z,97.14
2023-04-08T02:31:50.112Z,97.20
2023-04-08T02:32:50.155Z,97.25
2023-04-08T02:33:50.048Z,97.30
2023-04-08T02:34:50.040Z,97.30
2023-04-08T02:35:50.068Z,97.30
2023-04-08T02:36:50.016Z,97.30
2023-04-08T02:37:50.008Z,97.30
2023-04-08T02:38:50.429Z,97.30
2023-04-08T02:39:50.000Z,97.20
2023-04-08T02:40:49.965Z,97.20
2023-04-08T02:41:49.955Z,97.20
2023-04-08T02:42:49.961Z,97.20
2023-04-08T02:43:49.948Z,97.20
2023-04-08T02:44:49.945Z,97.20
2023-04-08T02:45:49.943Z,97.20
2023-04-08T02:46:49.903Z,97.20
2023-04-08T02:47:49.896Z,97.30
2023-04-08T02:48:50.120Z,97.30
2023-04-08T02:49:49.904Z,97.30
2023-04-08T02:50:49.860Z,97.30
2023-04-08T02:51:49.866Z,97.41
2023-04-08T02:52:49.865Z,97.41
2023-04-08T02:53:49.827Z,97.30
2023-04-08T02:54:50.026Z,97.30
2023-04-08T02:55:49.823Z,97.30
2023-04-08T02:56:49.807Z,97.30
2023-04-08T02:57:49.833Z,97.30
2023-04-08T02:58:49.922Z,97.20
2023-04-08T02:59:49.785Z,97.20
2023-04-08T03:00:49.843Z,97.30
2023-04-08T03:01:49.799Z,97.30
2023-04-08T03:02:49.934Z,97.41
2023-04-08T03:03:49.849Z,97.41
2023-04-08T03:04:49.737Z,97.51
2023-04-08T03:05:49.707Z,97.61
2023-04-08T03:06:49.702Z,97.61
2023-04-08T03:07:49.731Z,97.61
2023-04-08T03:08:49.922Z,97.61
2023-04-08T03:09:49.776Z,97.61
2023-04-08T03:10:49.657Z,97.51
2023-04-08T03:11:49.663Z,97.51
2023-04-08T03:12:49.631Z,97.51
2023-04-08T03:13:49.626Z,97.61
2023-04-08T03:14:49.646Z,97.51
2023-04-08T03:15:49.619Z,97.41
2023-04-08T03:16:49.617Z,97.30
2023-04-08T03:17:49.658Z,97.30
2023-04-08T03:18:49.823Z,97.30
2023-04-08T03:19:49.572Z,97.30
2023-04-08T03:20:49.547Z,97.20
2023-04-08T03:21:49.561Z,97.30
2023-04-08T03:22:49.543Z,97.41
2023-04-08T03:23:49.519Z,97.61
2023-04-08T03:24:49.553Z,97.61
2023-04-08T03:25:49.516Z,97.61
2023-04-08T03:26:49.498Z,97.61
2023-04-08T03:27:49.474Z,97.61
2023-04-08T03:28:49.822Z,97.51
2023-04-08T03:29:49.482Z,97.61
2023-04-08T03:30:49.457Z,97.61
2023-04-08T03:31:49.444Z,97.61
2023-04-08T03:32:49.457Z,97.61
2023-04-08T03:33:49.411Z,97.61
2023-04-08T03:34:49.423Z,97.61
2023-04-08T03:35:49.430Z,97.61
2023-04-08T03:36:49.409Z,97.61
2023-04-08T03:37:49.394Z,97.61
2023-04-08T03:38:49.555Z,97.61
2023-04-08T03:39:49.360Z,97.61
2023-04-08T03:40:49.360Z,97.72
2023-04-08T03:41:49.336Z,97.72
2023-04-08T03:42:49.324Z,97.72
2023-04-08T03:43:49.340Z,97.72
2023-04-08T03:44:49.315Z,97.72
2023-04-08T03:45:49.399Z,97.61
2023-04-08T03:46:49.277Z,97.61
2023-04-08T03:47:49.331Z,97.61
2023-04-08T03:48:49.648Z,97.61
2023-04-08T03:49:49.284Z,97.61
2023-04-08T03:50:49.235Z,97.61
2023-04-08T03:51:49.227Z,97.61
2023-04-08T03:52:49.228Z,97.61
2023-04-08T03:53:49.241Z,97.51
2023-04-08T03:54:49.195Z,97.51
2023-04-08T03:55:49.168Z,97.41
2023-04-08T03:56:49.162Z,97.41
2023-04-08T03:57:49.160Z,97.41
2023-04-08T03:58:49.359Z,97.41
2023-04-08T03:59:49.146Z,97.51
2023-04-08T04:00:49.173Z,97.51
2023-04-08T04:01:49.125Z,97.41
2023-04-08T04:02:49.313Z,97.41
2023-04-08T04:03:49.220Z,97.30
2023-04-08T04:04:49.080Z,97.30
2023-04-08T04:05:49.084Z,97.30
2023-04-08T04:06:49.028Z,97.41
2023-04-08T04:07:48.990Z,97.51
2023-04-08T04:08:49.406Z,97.51
2023-04-08T04:09:49.033Z,97.51
2023-04-08T04:10:48.988Z,97.41
2023-04-08T04:11:48.955Z,97.51
2023-04-08T04:12:49.002Z,97.51
2023-04-08T04:13:48.960Z,97.51
2023-04-08T04:14:48.925Z,97.61
2023-04-08T04:15:48.967Z,97.51
2023-04-08T04:16:48.898Z,97.51
2023-04-08T04:17:49.011Z,97.51
2023-04-08T04:18:49.262Z,97.41
2023-04-08T04:19:48.870Z,97.41
2023-04-08T04:20:48.912Z,97.47
2023-04-08T04:21:48.847Z,97.51
2023-04-08T04:22:48.828Z,97.36
2023-04-08T04:23:48.838Z,97.30
2023-04-08T04:24:48.804Z,97.26
2023-04-08T04:25:48.862Z,97.16
2023-04-08T04:26:48.823Z,97.16
2023-04-08T04:27:48.783Z,97.05
2023-04-08T04:28:49.631Z,96.95
2023-04-08T04:29:48.766Z,96.84
2023-04-08T04:30:48.767Z,96.95
2023-04-08T04:31:48.758Z,97.05
2023-04-08T04:32:48.789Z,97.05
2023-04-08T04:33:48.750Z,97.05
2023-04-08T04:34:48.714Z,97.05
2023-04-08T04:35:48.732Z,96.95
2023-04-08T04:36:48.685Z,96.95
2023-04-08T04:37:48.677Z,96.95
2023-04-08T04:38:50.169Z,96.84
2023-04-08T04:39:48.651Z,96.84
2023-04-08T04:40:48.679Z,96.84
2023-04-08T04:41:48.621Z,96.64
2023-04-08T04:42:48.623Z,96.64
2023-04-08T04:43:48.671Z,96.64
2023-04-08T04:44:48.600Z,96.53
2023-04-08T04:45:48.606Z,96.64
2023-04-08T04:46:48.643Z,96.64
2023-04-08T04:47:48.583Z,96.64
2023-04-08T04:48:48.802Z,96.64
2023-04-08T04:49:48.553Z,96.64
2023-04-08T04:50:48.539Z,96.64
2023-04-08T04:51:48.518Z,96.64
2023-04-08T04:52:48.544Z,96.64
2023-04-08T04:53:48.536Z,96.64
2023-04-08T04:54:48.528Z,96.74
2023-04-08T04:55:48.483Z,96.84
2023-04-08T04:56:48.476Z,96.89
2023-04-08T04:57:48.486Z,96.99
2023-04-08T04:58:48.738Z,97.09
2023-04-08T04:59:48.446Z,97.09
2023-04-08T05:00:48.427Z,97.16
2023-04-08T05:01:48.587Z,97.16
2023-04-08T05:02:48.610Z,97.16
2023-04-08T05:03:48.471Z,97.16
2023-04-08T05:04:48.424Z,97.16
2023-04-08T05:05:48.432Z,97.05
2023-04-08T05:06:48.383Z,97.09
2023-04-08T05:07:48.357Z,96.99
2023-04-08T05:08:48.701Z,97.05
2023-04-08T05:09:48.339Z,97.20
2023-04-08T05:10:48.353Z,97.20
2023-04-08T05:11:48.315Z,97.16
2023-04-08T05:12:48.329Z,97.16
2023-04-08T05:13:48.345Z,97.05
2023-04-08T05:14:48.308Z,97.05
2023-04-08T05:15:48.325Z,97.05
2023-04-08T05:16:48.279Z,96.95
2023-04-08T05:17:48.317Z,96.95
2023-04-08T05:18:48.520Z,96.99
2023-04-08T05:19:48.248Z,96.89
2023-04-08T05:20:48.251Z,96.89
2023-04-08T05:21:48.263Z,96.99
2023-04-08T05:22:48.211Z,97.09
2023-04-08T05:23:48.312Z,97.09
2023-04-08T05:24:48.224Z,97.05
2023-04-08T05:25:48.173Z,97.16
2023-04-08T05:26:48.165Z,97.05
2023-04-08T05:27:48.211Z,97.05
2023-04-08T05:28:48.332Z,96.95
2023-04-08T05:29:48.162Z,96.95
2023-04-08T05:30:48.131Z,96.84
2023-04-08T05:31:49.015Z,96.74
2023-04-08T05:32:48.134Z,96.64
2023-04-08T05:33:48.114Z,96.53
2023-04-08T05:34:48.108Z,96.44
2023-04-08T05:35:48.106Z,96.53
2023-04-08T05:36:48.078Z,96.44
2023-04-08T05:37:48.066Z,96.44
2023-04-08T05:38:48.479Z,96.44
2023-04-08T05:39:48.072Z,96.44
2023-04-08T05:40:48.027Z,96.44
2023-04-08T05:41:48.015Z,96.53
2023-04-08T05:42:48.049Z,96.53
2023-04-08T05:43:47.999Z,96.44
2023-04-08T05:44:48.021Z,96.44
2023-04-08T05:45:47.994Z,96.28
2023-04-08T05:46:48.002Z,96.28
2023-04-08T05:47:47.967Z,96.18
2023-04-08T05:48:48.135Z,96.18
2023-04-08T05:49:49.275Z,96.18
2023-04-08T05:50:47.922Z,96.18
2023-04-08T05:51:47.906Z,96.08
2023-04-08T05:52:47.922Z,96.08
2023-04-08T05:53:47.898Z,95.98
2023-04-08T05:54:47.907Z,95.98
2023-04-08T05:55:47.862Z,95.87
2023-04-08T05:56:47.866Z,95.77
2023-04-08T05:57:47.850Z,95.77
2023-04-08T05:58:48.023Z,95.67
2023-04-08T05:59:47.840Z,95.77
2023-04-08T06:00:47.859Z,95.67
2023-04-08T06:01:47.914Z,95.62
2023-04-08T06:02:47.945Z,95.62
2023-04-08T06:03:47.956Z,95.52
2023-04-08T06:04:47.884Z,95.52
2023-04-08T06:05:47.763Z,95.42
2023-04-08T06:06:47.747Z,95.31
2023-04-08T06:07:47.746Z,95.21
2023-04-08T06:08:47.794Z,95.00
2023-04-08T06:09:47.719Z,94.85
2023-04-08T06:10:47.711Z,94.65
2023-04-08T06:11:47.686Z,94.65
2023-04-08T06:12:47.689Z,94.65
2023-04-08T06:13:47.669Z,94.55
2023-04-08T06:14:47.677Z,94.45
2023-04-08T06:15:47.641Z,94.34
2023-04-08T06:16:47.671Z,94.34
2023-04-08T06:17:47.634Z,94.24
2023-04-08T06:18:47.789Z,94.34
2023-04-08T06:19:47.636Z,94.34
2023-04-08T06:20:47.616Z,94.24
2023-04-08T06:21:47.587Z,94.13
2023-04-08T06:22:47.580Z,94.03
2023-04-08T06:23:47.555Z,94.13
2023-04-08T06:24:47.575Z,94.24
2023-04-08T06:25:47.559Z,94.24
2023-04-08T06:26:47.548Z,94.30
2023-04-08T06:27:47.519Z,94.30
2023-04-08T06:28:47.577Z,94.20
2023-04-08T06:29:47.531Z,94.09
2023-04-08T06:30:47.496Z,93.88
2023-04-08T06:31:47.529Z,93.68
2023-04-08T06:32:47.562Z,93.58
2023-04-08T06:33:47.457Z,93.48
2023-04-08T06:34:47.469Z,93.37
2023-04-08T06:35:47.461Z,93.37
2023-04-08T06:36:47.452Z,93.37
2023-04-08T06:37:47.418Z,93.37
2023-04-08T06:38:47.420Z,93.37
2023-04-08T06:39:47.406Z,93.48
2023-04-08T06:40:47.394Z,93.37
2023-04-08T06:41:47.392Z,93.37
2023-04-08T06:42:47.377Z,93.23
2023-04-08T06:43:47.688Z,93.12
2023-04-08T06:44:47.357Z,93.02
2023-04-08T06:45:47.356Z,93.02
2023-04-08T06:46:47.335Z,93.12
2023-04-08T06:47:47.359Z,93.12
2023-04-08T06:48:47.322Z,93.12
2023-04-08T06:49:47.312Z,93.12
2023-04-08T06:50:47.284Z,93.02
2023-04-08T06:51:47.299Z,92.92
2023-04-08T06:52:47.276Z,92.92
2023-04-08T06:53:47.257Z,92.82
2023-04-08T06:54:47.265Z,92.61
2023-04-08T06:55:47.239Z,92.61
2023-04-08T06:56:47.555Z,92.46
2023-04-08T06:57:47.210Z,92.46
2023-04-08T06:58:47.210Z,92.46
2023-04-08T06:59:47.212Z,92.25
2023-04-08T07:00:47.258Z,92.05
2023-04-08T07:01:47.263Z,91.85
2023-04-08T07:02:47.322Z,91.64
2023-04-08T07:03:47.209Z,91.53
2023-04-08T07:04:47.175Z,91.49
2023-04-08T07:05:47.144Z,91.29
2023-04-08T07:06:47.155Z,91.19
2023-04-08T07:07:47.129Z,91.08
2023-04-08T07:08:47.138Z,91.19
2023-04-08T07:09:47.132Z,91.19
2023-04-08T07:10:47.090Z,90.98
2023-04-08T07:11:47.078Z,90.83
2023-04-08T07:12:47.083Z,90.59
2023-04-08T07:13:47.056Z,89.87
2023-04-08T07:14:47.421Z,89.42
2023-04-08T07:15:47.033Z,88.90
2023-04-08T07:16:47.068Z,88.59
2023-04-08T07:17:47.139Z,88.29
2023-04-08T07:18:47.004Z,88.29
2023-04-08T07:19:47.086Z,88.29
2023-04-08T07:20:46.989Z,88.18
2023-04-08T07:21:46.976Z,88.39
2023-04-08T07:22:46.975Z,88.80
2023-04-08T07:23:47.122Z,88.70
2023-04-08T07:24:46.982Z,88.90
2023-04-08T07:25:46.966Z,88.80
2023-04-08T07:26:46.930Z,88.49
2023-04-08T07:27:46.908Z,88.39
2023-04-08T07:28:46.907Z,88.18
2023-04-08T07:29:46.895Z,88.29
2023-04-08T07:30:46.991Z,88.08
2023-04-08T07:31:46.876Z,88.18
2023-04-08T07:32:46.980Z,88.43
2023-04-08T07:33:46.848Z,88.53
2023-04-08T07:34:46.852Z,88.84
2023-04-08T07:35:46.849Z,88.95
2023-04-08T07:36:46.813Z,89.04
2023-04-08T07:37:46.815Z,89.15
2023-04-08T07:38:46.803Z,88.95
2023-04-08T07:39:46.809Z,88.90
2023-04-08T07:40:46.777Z,88.70
2023-04-08T07:41:46.764Z,88.80
2023-04-08T07:42:46.763Z,88.59
2023-04-08T07:43:46.742Z,88.29
2023-04-08T07:44:46.782Z,88.39
2023-04-08T07:45:46.741Z,88.35
2023-04-08T07:46:46.720Z,88.14
2023-04-08T07:47:46.729Z,87.94
2023-04-08T07:48:46.732Z,87.70
2023-04-08T07:49:46.701Z,87.08
2023-04-08T07:51:09.488Z,86.52
2023-04-08T07:51:46.660Z,85.91
2023-04-08T07:52:46.762Z,85.50
2023-04-08T07:53:46.677Z,85.60
2023-04-08T07:54:46.769Z,85.60
2023-04-08T07:55:46.657Z,85.80
2023-04-08T07:56:46.613Z,85.80
2023-04-08T07:57:46.621Z,86.22
2023-04-08T07:58:46.584Z,85.66
2023-04-08T07:59:46.577Z,85.36
2023-04-08T08:00:46.605Z,84.84
2023-04-08T08:01:46.592Z,84.74
2023-04-08T08:02:46.698Z,84.74
2023-04-08T08:03:46.699Z,84.64
2023-04-08T08:04:46.562Z,85.01
2023-04-08T08:05:46.531Z,84.70
2023-04-08T08:06:46.507Z,84.44
2023-04-08T08:07:46.520Z,84.33
2023-04-08T08:08:46.525Z,84.53
2023-04-08T08:09:46.505Z,84.58
2023-04-08T08:10:46.480Z,84.88
2023-04-08T08:11:46.458Z,84.99
2023-04-08T08:12:46.452Z,85.09
2023-04-08T08:13:46.442Z,85.19
2023-04-08T08:14:46.421Z,85.19
2023-04-08T08:15:46.487Z,85.50
2023-04-08T08:16:46.412Z,85.30
2023-04-08T08:17:46.434Z,84.95
2023-04-08T08:18:46.457Z,84.19
2023-04-08T08:19:46.388Z,82.78
2023-04-08T08:20:46.359Z,81.82
2023-04-08T08:21:46.381Z,81.62
2023-04-08T08:22:56.758Z,81.82
2023-04-08T08:23:46.384Z,82.17
2023-04-08T08:24:46.314Z,82.17
2023-04-08T08:25:46.324Z,82.27
2023-04-08T08:26:46.293Z,82.37
2023-04-08T08:27:46.334Z,82.03
2023-04-08T08:28:46.288Z,82.13
2023-04-08T08:29:46.274Z,82.03
2023-04-08T08:30:46.257Z,82.34
2023-04-08T08:31:46.440Z,81.62
2023-04-08T08:32:46.263Z,81.41
2023-04-08T08:33:46.243Z,81.62
2023-04-08T08:34:46.238Z,81.79
2023-04-08T08:35:46.224Z,80.97
2023-04-08T08:36:46.207Z,80.56
2023-04-08T08:37:46.227Z,80.28
2023-04-08T08:38:46.185Z,78.81
2023-04-08T08:39:46.184Z,78.64
2023-04-08T08:40:46.158Z,79.16
2023-04-08T08:41:46.157Z,79.05
2023-04-08T08:42:46.187Z,78.23
2023-04-08T08:43:46.152Z,78.34
2023-04-08T08:44:46.107Z,78.34
2023-04-08T08:45:46.116Z,78.68
2023-04-08T08:46:46.141Z,79.19
2023-04-08T08:47:46.239Z,79.64
2023-04-08T08:48:46.094Z,80.29
2023-04-08T08:49:46.069Z,80.94
2023-04-08T08:50:46.062Z,81.65
2023-04-08T08:51:46.058Z,81.70
2023-04-08T08:52:46.051Z,82.21
2023-04-08T08:53:46.032Z,82.71
2023-04-08T08:54:46.020Z,82.82
2023-04-08T08:56:13.518Z,82.76
2023-04-08T08:56:46.001Z,83.06
2023-04-08T08:57:46.078Z,83.37
2023-04-08T08:58:46.025Z,83.78
2023-04-08T08:59:46.101Z,84.09
2023-04-08T09:00:45.956Z,84.19
2023-04-08T09:01:45.997Z,84.12
2023-04-08T09:02:46.165Z,84.23
2023-04-08T09:03:46.070Z,84.53
2023-04-08T09:04:46.088Z,84.84
2023-04-08T09:05:45.986Z,84.95
2023-04-08T09:06:45.895Z,84.95
2023-04-08T09:07:45.875Z,84.95
2023-04-08T09:08:45.864Z,85.15
2023-04-08T09:09:45.928Z,84.95
2023-04-08T09:10:45.868Z,84.84
2023-04-08T09:11:45.833Z,84.74
2023-04-08T09:12:45.820Z,84.74
2023-04-08T09:13:45.880Z,84.74
2023-04-08T09:14:45.798Z,84.74
2023-04-08T09:15:45.796Z,84.84
2023-04-08T09:16:45.821Z,85.05
2023-04-08T09:17:45.835Z,84.95
2023-04-08T09:18:45.845Z,84.84
2023-04-08T09:19:45.762Z,84.74
2023-04-08T09:20:45.738Z,84.84
2023-04-08T09:21:45.739Z,85.05
2023-04-08T09:22:45.714Z,85.15
2023-04-08T09:23:45.747Z,85.15
2023-04-08T09:24:45.723Z,85.05
2023-04-08T09:25:45.696Z,85.05
2023-04-08T09:26:45.679Z,85.05
2023-04-08T09:27:45.670Z,84.74
2023-04-08T09:28:45.680Z,84.64
2023-04-08T09:29:45.655Z,84.53
2023-04-08T09:30:45.642Z,84.53
2023-04-08T09:31:45.683Z,84.68
2023-04-08T09:32:45.654Z,84.58
2023-04-08T09:33:45.621Z,84.58
2023-04-08T09:34:45.593Z,84.68
2023-04-08T09:35:45.586Z,84.68
2023-04-08T09:36:45.564Z,84.53
2023-04-08T09:37:45.586Z,84.23
2023-04-08T09:38:45.603Z,84.12
2023-04-08T09:39:45.550Z,84.44
2023-04-08T09:40:45.528Z,84.78
2023-04-08T09:41:45.518Z,84.88
2023-04-08T09:42:45.524Z,84.88
2023-04-08T09:43:45.534Z,84.64
2023-04-08T09:44:45.512Z,84.33
2023-04-08T09:45:45.504Z,83.78
2023-04-08T09:46:45.495Z,83.13
2023-04-08T09:47:45.487Z,82.48
2023-04-08T09:48:45.486Z,81.93
2023-04-08T09:49:45.439Z,80.62
2023-04-08T09:50:45.425Z,78.44
2023-04-08T09:51:45.426Z,77.62
2023-04-08T09:52:45.534Z,77.72
2023-04-08T09:53:45.429Z,78.44
2023-04-08T09:54:45.447Z,78.64
2023-04-08T09:55:45.380Z,78.54
2023-04-08T09:56:45.376Z,78.44
2023-04-08T09:57:45.368Z,78.88
2023-04-08T09:58:45.407Z,79.39
2023-04-08T09:59:45.348Z,79.94
2023-04-08T10:00:45.424Z,80.15
2023-04-08T10:01:45.408Z,80.25
2023-04-08T10:02:45.398Z,80.39
2023-04-08T10:03:45.466Z,80.25
2023-04-08T10:04:45.324Z,79.70
2023-04-08T10:05:45.302Z,76.76
2023-04-08T10:06:45.260Z,75.40
2023-04-08T10:07:45.261Z,74.35
2023-04-08T10:08:45.298Z,73.74
2023-04-08T10:09:45.266Z,73.43
2023-04-08T10:10:47.358Z,73.23
2023-04-08T10:11:45.214Z,73.02
2023-04-08T10:12:45.220Z,72.69
2023-04-08T10:13:45.247Z,72.08
2023-04-08T10:14:51.237Z,71.84
2023-04-08T10:15:45.169Z,71.23
2023-04-08T10:16:45.807Z,71.64
2023-04-08T10:17:45.233Z,71.19
2023-04-08T10:18:45.200Z,70.89
2023-04-08T10:19:45.133Z,70.65
2023-04-08T10:20:45.147Z,70.38
2023-04-08T10:21:45.127Z,70.68
2023-04-08T10:22:45.085Z,70.68
2023-04-08T10:23:45.096Z,71.09
2023-04-08T10:24:45.078Z,70.58
2023-04-08T10:25:45.234Z,70.31
2023-04-08T10:26:45.095Z,70.72
2023-04-08T10:27:45.055Z,70.95
2023-04-08T10:28:45.112Z,71.30
2023-04-08T10:29:45.028Z,71.53
2023-04-08T10:30:45.011Z,71.67
2023-04-08T10:31:45.030Z,72.38
2023-04-08T10:32:45.031Z,73.03
2023-04-08T10:33:45.009Z,73.23
2023-04-08T10:34:44.971Z,73.64
2023-04-08T10:35:44.982Z,73.94
2023-04-08T10:36:44.948Z,73.84
2023-04-08T10:37:44.951Z,73.43
2023-04-08T10:38:44.949Z,73.23
2023-04-08T10:39:44.918Z,73.43
2023-04-08T10:40:44.910Z,73.33
2023-04-08T10:41:44.924Z,72.82
2023-04-08T10:42:44.898Z,72.92
2023-04-08T10:43:44.893Z,74.15
2023-04-08T10:44:44.867Z,73.74
2023-04-08T10:45:47.955Z,73.23
2023-04-08T10:46:44.867Z,73.13
2023-04-08T10:47:44.853Z,72.41
2023-04-08T10:48:44.862Z,72.08
2023-04-08T10:49:44.813Z,71.33
2023-04-08T10:50:44.829Z,71.23
2023-04-08T10:51:44.834Z,71.02
2023-04-08T10:52:44.780Z,70.82
2023-04-08T10:53:44.784Z,68.15
2023-04-08T10:54:44.763Z,66.42
2023-04-08T10:55:44.749Z,67.24
2023-04-08T10:56:44.760Z,67.57
2023-04-08T10:57:44.721Z,66.96
2023-04-08T10:58:44.769Z,66.99
2023-04-08T10:59:44.744Z,67.19
2023-04-08T11:00:44.686Z,67.74
2023-04-08T11:01:44.753Z,67.67
2023-04-08T11:02:44.788Z,67.50
2023-04-08T11:03:44.733Z,68.18
2023-04-08T11:04:44.703Z,68.58
2023-04-08T11:05:44.642Z,69.23
2023-04-08T11:06:44.633Z,69.76
2023-04-08T11:07:44.631Z,70.51
2023-04-08T11:08:44.713Z,70.41
2023-04-08T11:09:44.599Z,70.41
2023-04-08T11:10:44.592Z,70.72
2023-04-08T11:11:44.582Z,70.54
2023-04-08T11:12:44.570Z,70.65
2023-04-08T11:13:52.639Z,71.15
2023-04-08T11:14:44.543Z,71.56
2023-04-08T11:15:44.604Z,71.56
2023-04-08T11:16:44.520Z,71.36
2023-04-08T11:17:44.582Z,71.36
2023-04-08T11:18:44.531Z,71.26
2023-04-08T11:19:44.539Z,71.06
2023-04-08T11:20:44.504Z,71.15
2023-04-08T11:21:44.493Z,71.26
2023-04-08T11:22:44.476Z,70.72
2023-04-08T11:23:44.477Z,69.87
2023-04-08T11:24:44.445Z,69.23
2023-04-08T11:25:44.433Z,68.99
2023-04-08T11:26:44.424Z,67.71
2023-04-08T11:27:44.421Z,67.53
2023-04-08T11:28:44.432Z,67.53
2023-04-08T11:29:44.402Z,67.05
2023-04-08T11:30:44.438Z,67.46
2023-04-08T11:31:44.595Z,67.16
2023-04-08T11:32:44.385Z,66.85
2023-04-08T11:33:44.369Z,67.16
2023-04-08T11:34:44.337Z,67.36
2023-04-08T11:35:44.389Z,67.05
2023-04-08T11:36:44.312Z,65.83
2023-04-08T11:37:44.312Z,66.31
2023-04-08T11:38:44.362Z,66.72
2023-04-08T11:39:44.293Z,66.38
2023-04-08T11:40:44.297Z,66.08
2023-04-08T11:41:44.272Z,64.73
2023-04-08T11:42:45.989Z,65.06
2023-04-08T11:43:44.262Z,65.26
2023-04-08T11:44:44.228Z,66.00
2023-04-08T11:45:44.237Z,66.00
2023-04-08T11:46:44.255Z,65.91
2023-04-08T11:47:44.257Z,66.00
2023-04-08T11:48:44.245Z,65.36
2023-04-08T11:49:44.179Z,65.67
2023-04-08T11:50:44.188Z,65.26
2023-04-08T11:51:44.163Z,65.09
2023-04-08T11:52:44.154Z,65.30
2023-04-08T11:53:44.180Z,65.70
2023-04-08T11:54:44.137Z,65.30
2023-04-08T11:55:44.117Z,65.19
2023-04-08T11:56:44.132Z,64.52
2023-04-08T11:57:44.105Z,61.36
2023-04-08T11:58:44.124Z,60.78
2023-04-08T11:59:44.077Z,60.75
2023-04-08T12:00:44.090Z,60.78
2023-04-08T12:01:44.104Z,60.44
2023-04-08T12:02:44.093Z,58.76
2023-04-08T12:03:44.226Z,58.13
2023-04-08T12:04:44.092Z,58.45
2023-04-08T12:05:44.012Z,55.07
2023-04-08T12:06:44.057Z,56.71
2023-04-08T12:07:43.995Z,56.33
2023-04-08T12:08:44.139Z,55.82
2023-04-08T12:09:43.974Z,55.88
2023-04-08T12:10:43.974Z,56.10
2023-04-08T12:11:43.952Z,56.54
2023-04-08T12:12:43.972Z,57.20
2023-04-08T12:13:43.965Z,55.68
2023-04-08T12:14:43.950Z,58.06
2023-04-08T12:15:43.942Z,58.29
2023-04-08T12:16:43.907Z,58.01
2023-04-08T12:17:43.928Z,58.52
2023-04-08T12:18:43.943Z,58.62
2023-04-08T12:19:43.875Z,58.04
2023-04-08T12:20:43.859Z,57.93
2023-04-08T12:21:43.874Z,54.13
2023-04-08T12:22:43.851Z,50.98
2023-04-08T12:23:43.881Z,49.62
2023-04-08T12:24:43.820Z,48.27
2023-04-08T12:25:43.821Z,49.07
2023-04-08T12:26:43.798Z,49.79
2023-04-08T12:27:43.842Z,48.21
2023-04-08T12:28:43.784Z,48.89
2023-04-08T12:29:43.796Z,50.15
2023-04-08T12:30:43.761Z,50.24
2023-04-08T12:31:43.861Z,51.25
2023-04-08T12:32:43.798Z,50.12
2023-04-08T12:33:43.723Z,49.90
2023-04-08T12:34:43.722Z,49.57
2023-04-08T12:35:43.719Z,50.30
2023-04-08T12:36:43.706Z,49.02
2023-04-08T12:37:43.777Z,47.39
2023-04-08T12:38:43.672Z,47.96
2023-04-08T12:39:43.689Z,49.79
2023-04-08T12:40:43.661Z,49.33
2023-04-08T12:41:43.645Z,50.70
2023-04-08T12:42:43.659Z,49.69
2023-04-08T12:43:43.632Z,47.86
2023-04-08T12:44:43.630Z,47.75
2023-04-08T12:45:43.605Z,48.69
2023-04-08T12:46:43.674Z,48.08
2023-04-08T12:47:43.681Z,47.59
2023-04-08T12:48:43.822Z,46.41
2023-04-08T12:49:49.510Z,45.79
2023-04-08T12:50:43.566Z,46.34
2023-04-08T12:51:43.541Z,45.51
2023-04-08T12:52:43.553Z,46.48